Time;durP1;ratioP1;P1;durP2;ratioP2;P2;SDS_P1;SDS_P2;PMS_P1;PMS_P2;Temp;Humidity;BMP_temperature;BMP_pressure;BME280_temperature;BME280_humidity;BME280_pressure;Samples;Min_cycle;Max_cycle;Signal;HPM_P1;HPM_P2
2022/07/24 00:00:21;;;;;;;3.95;3.55;;;20.30;99.90;;;;;;2127900;27;20026;-69
2022/07/24 00:01:21;;;;;;;4.05;3.67;;;20.30;99.90;;;;;;2127356;27;20046;-69
2022/07/24 00:02:22;;;;;;;5.35;4.03;;;20.30;99.90;;;;;;2120465;27;20023;-69
2022/07/24 00:03:23;;;;;;;5.28;4.03;;;20.20;99.90;;;;;;2120387;27;20050;-69
2022/07/24 00:04:24;;;;;;;4.07;3.60;;;20.30;99.90;;;;;;2123720;27;20123;-69
2022/07/24 00:05:24;;;;;;;7.80;3.90;;;20.20;99.90;;;;;;2123608;27;20394;-69
2022/07/24 00:06:25;;;;;;;4.63;4.22;;;20.30;99.90;;;;;;2126212;27;20110;-69
2022/07/24 00:07:26;;;;;;;5.65;3.72;;;20.20;99.90;;;;;;2127798;27;20022;-69
2022/07/24 00:08:26;;;;;;;5.07;3.80;;;20.30;99.90;;;;;;2127521;27;20023;-69
2022/07/24 00:09:27;;;;;;;4.70;4.10;;;20.20;99.90;;;;;;2127225;27;20014;-69
2022/07/24 00:10:27;;;;;;;5.18;4.00;;;20.20;99.90;;;;;;2129385;27;20026;-69
2022/07/24 00:11:28;;;;;;;4.50;4.10;;;20.20;99.90;;;;;;2128415;27;20027;-69
2022/07/24 00:12:29;;;;;;;4.10;3.80;;;20.20;99.90;;;;;;2125986;27;20022;-69
2022/07/24 00:13:29;;;;;;;4.78;4.30;;;20.20;99.90;;;;;;2125551;27;20106;-69
2022/07/24 00:14:30;;;;;;;6.30;4.30;;;20.10;99.90;;;;;;2124201;27;20016;-69
2022/07/24 00:15:31;;;;;;;6.05;4.07;;;20.10;99.90;;;;;;2125455;27;20377;-69
2022/07/24 00:16:31;;;;;;;6.05;4.40;;;20.10;99.90;;;;;;2125624;27;20224;-69
2022/07/24 00:17:32;;;;;;;5.03;4.28;;;20.10;99.90;;;;;;2125311;27;20031;-69
2022/07/24 00:18:33;;;;;;;4.57;4.00;;;20.10;99.90;;;;;;2127116;27;20024;-69
2022/07/24 00:19:33;;;;;;;5.35;4.40;;;20.10;99.90;;;;;;2128305;27;20068;-69
2022/07/24 00:20:34;;;;;;;4.70;4.30;;;20.10;99.90;;;;;;2126216;27;20024;-69
2022/07/24 00:21:35;;;;;;;6.00;5.10;;;20.00;99.90;;;;;;2129007;27;20027;-69
2022/07/24 00:22:36;;;;;;;8.95;5.22;;;20.10;99.90;;;;;;2112814;28;20019;-69
2022/07/24 00:23:37;;;;;;;5.43;4.75;;;20.00;99.90;;;;;;2116701;27;20032;-69
2022/07/24 00:24:37;;;;;;;7.47;4.82;;;20.00;99.90;;;;;;2127321;27;20045;-69
2022/07/24 00:25:38;;;;;;;5.63;5.05;;;20.00;99.90;;;;;;2126787;27;20056;-69
2022/07/24 00:26:38;;;;;;;5.70;5.13;;;20.00;99.90;;;;;;2128717;27;20023;-69
2022/07/24 00:27:39;;;;;;;5.70;4.90;;;19.90;99.90;;;;;;2128151;27;20019;-69
2022/07/24 00:28:40;;;;;;;7.00;4.75;;;20.00;99.90;;;;;;2129497;27;20023;-69
2022/07/24 00:29:40;;;;;;;7.32;4.68;;;19.90;99.90;;;;;;2129573;27;20027;-69
2022/07/24 00:30:41;;;;;;;7.70;5.10;;;19.90;99.90;;;;;;2129253;27;20014;-69
2022/07/24 00:31:41;;;;;;;6.88;5.07;;;19.90;99.90;;;;;;2125787;27;20019;-69
2022/07/24 00:32:42;;;;;;;6.35;5.43;;;19.90;99.90;;;;;;2123597;27;20133;-69
2022/07/24 00:33:42;;;;;;;6.05;4.85;;;19.90;99.90;;;;;;2126429;27;20027;-69
2022/07/24 00:34:43;;;;;;;7.75;5.70;;;19.90;99.90;;;;;;2127998;27;20030;-69
2022/07/24 00:35:44;;;;;;;7.22;4.90;;;19.90;99.90;;;;;;2118614;27;20015;-69
2022/07/24 00:36:44;;;;;;;5.93;4.93;;;19.80;99.90;;;;;;2119026;27;20117;-69
2022/07/24 00:37:46;;;;;;;5.50;4.80;;;19.80;99.90;;;;;;2124614;27;20055;-69
2022/07/24 00:38:47;;;;;;;6.68;5.18;;;19.80;99.90;;;;;;2117241;27;20027;-69
2022/07/24 00:39:47;;;;;;;5.43;4.85;;;19.80;99.90;;;;;;2119528;27;20025;-69
2022/07/24 00:40:48;;;;;;;5.60;4.72;;;19.80;99.90;;;;;;2127384;27;20616;-69
2022/07/24 00:41:52;;;;;;;5.65;5.15;;;19.70;99.90;;;;;;2128587;27;20018;-69
2022/07/24 00:42:52;;;;;;;7.38;5.00;;;19.80;99.90;;;;;;2126355;27;20027;-69
2022/07/24 00:44:14;;;;;;;7.75;4.95;;;19.80;99.90;;;;;;2126454;27;20019;-69
2022/07/24 00:45:15;;;;;;;7.03;5.53;;;19.70;99.90;;;;;;2125060;27;20018;-69
2022/07/24 00:46:18;;;;;;;5.78;5.25;;;19.70;99.90;;;;;;2124151;27;20038;-69
2022/07/24 00:47:19;;;;;;;6.90;4.60;;;19.70;99.90;;;;;;2124624;27;20030;-69
2022/07/24 00:48:20;;;;;;;5.25;4.75;;;19.70;99.90;;;;;;2123427;27;20031;-69
2022/07/24 00:49:20;;;;;;;5.07;4.43;;;19.70;99.90;;;;;;2126156;27;20383;-69
2022/07/24 00:50:21;;;;;;;6.20;5.05;;;19.70;99.90;;;;;;2120915;27;20525;-69
2022/07/24 00:51:23;;;;;;;4.38;4.07;;;19.70;99.90;;;;;;2110131;28;20099;-69
2022/07/24 00:52:23;;;;;;;5.35;4.32;;;19.70;99.90;;;;;;2117089;27;20028;-69
2022/07/24 00:53:24;;;;;;;5.07;4.57;;;19.70;99.90;;;;;;2118551;27;20102;-69
2022/07/24 00:54:25;;;;;;;8.55;4.70;;;19.70;99.90;;;;;;2125985;27;20020;-69
2022/07/24 00:55:27;;;;;;;5.90;5.00;;;19.60;99.90;;;;;;2126500;27;20018;-69
2022/07/24 00:56:28;;;;;;;6.05;4.18;;;19.60;99.90;;;;;;2124844;27;20011;-68
2022/07/24 00:57:28;;;;;;;7.65;4.47;;;19.60;99.90;;;;;;2127774;27;20031;-69
2022/07/24 00:58:29;;;;;;;5.20;4.70;;;19.60;99.90;;;;;;2127854;27;20035;-69
2022/07/24 00:59:29;;;;;;;7.45;4.70;;;19.60;99.90;;;;;;2116736;27;20027;-69
2022/07/24 01:00:30;;;;;;;5.40;4.82;;;19.60;99.90;;;;;;2111128;28;20023;-69
2022/07/24 01:01:31;;;;;;;5.53;5.03;;;19.60;99.90;;;;;;2117708;27;20023;-69
2022/07/24 01:02:32;;;;;;;6.07;4.82;;;19.60;99.90;;;;;;2125700;27;20099;-69
2022/07/24 01:03:32;;;;;;;6.35;4.43;;;19.60;99.90;;;;;;2128480;27;20027;-69
2022/07/24 01:04:33;;;;;;;5.40;4.55;;;19.60;99.90;;;;;;2124656;27;20102;-69
2022/07/24 01:05:34;;;;;;;5.93;4.47;;;19.60;99.90;;;;;;2127478;27;20134;-69
2022/07/24 01:06:35;;;;;;;5.13;4.70;;;19.50;99.90;;;;;;2127926;27;20489;-68
2022/07/24 01:07:36;;;;;;;5.53;4.93;;;19.60;99.90;;;;;;2126243;27;20466;-68
2022/07/24 01:08:37;;;;;;;4.82;4.43;;;19.60;99.90;;;;;;2126819;27;20027;-69
2022/07/24 01:09:38;;;;;;;5.82;4.53;;;19.60;99.90;;;;;;2127254;27;20101;-69
2022/07/24 01:10:39;;;;;;;7.10;5.10;;;19.50;99.90;;;;;;2126346;27;20028;-69
2022/07/24 01:11:41;;;;;;;6.57;5.32;;;19.50;99.90;;;;;;2126116;27;20378;-69
2022/07/24 01:12:42;;;;;;;5.80;4.28;;;19.50;99.90;;;;;;2127101;27;20015;-69
2022/07/24 01:13:43;;;;;;;4.90;4.38;;;19.50;99.90;;;;;;2124350;27;20042;-69
2022/07/24 01:14:43;;;;;;;5.28;4.70;;;19.60;99.90;;;;;;2126077;27;20011;-69
2022/07/24 01:15:47;;;;;;;5.85;4.50;;;19.60;99.90;;;;;;2126060;27;20015;-69
2022/07/24 01:16:47;;;;;;;4.47;4.07;;;19.60;99.90;;;;;;2125423;27;20030;-69
2022/07/24 01:17:48;;;;;;;6.63;4.53;;;19.60;99.90;;;;;;2126123;27;20464;-69
2022/07/24 01:18:48;;;;;;;7.45;4.55;;;19.60;99.90;;;;;;2127183;27;20100;-69
2022/07/24 01:19:50;;;;;;;5.13;4.35;;;19.60;99.90;;;;;;2125364;27;20022;-69
2022/07/24 01:20:50;;;;;;;5.00;4.47;;;19.60;99.90;;;;;;2125075;27;20019;-69
2022/07/24 01:21:53;;;;;;;5.97;4.55;;;19.60;99.90;;;;;;2126059;27;20031;-69
2022/07/24 01:22:53;;;;;;;5.93;4.38;;;19.60;99.90;;;;;;2127345;27;20481;-69
2022/07/24 01:23:54;;;;;;;4.43;4.03;;;19.60;99.90;;;;;;2122054;27;21029;-69
2022/07/24 01:24:55;;;;;;;4.35;3.95;;;19.60;99.90;;;;;;2126362;27;20386;-69
2022/07/24 01:25:56;;;;;;;6.53;4.93;;;19.60;99.90;;;;;;2124645;27;20072;-69
2022/07/24 01:26:57;;;;;;;4.95;4.55;;;19.60;99.90;;;;;;2126674;27;20014;-69
2022/07/24 01:27:58;;;;;;;4.90;4.50;;;19.60;99.90;;;;;;2126083;27;20093;-69
2022/07/24 01:28:58;;;;;;;5.57;3.97;;;19.60;99.90;;;;;;2126763;27;20023;-69
2022/07/24 01:29:59;;;;;;;5.90;4.80;;;19.50;99.90;;;;;;2126360;27;20026;-69
2022/07/24 01:31:00;;;;;;;4.70;4.30;;;19.50;99.90;;;;;;2124116;27;20410;-69
2022/07/24 01:32:00;;;;;;;7.05;4.50;;;19.50;99.90;;;;;;2124138;27;20388;-69
2022/07/24 01:33:01;;;;;;;5.50;4.07;;;19.50;99.90;;;;;;2126062;27;20020;-68
2022/07/24 01:34:02;;;;;;;6.30;4.22;;;19.50;99.90;;;;;;2124933;27;20023;-68
2022/07/24 01:35:03;;;;;;;6.63;4.72;;;19.50;99.90;;;;;;2125359;27;20423;-68
2022/07/24 01:36:04;;;;;;;5.63;4.60;;;19.50;99.90;;;;;;2125643;27;20022;-68
2022/07/24 01:37:06;;;;;;;6.65;4.55;;;19.50;99.90;;;;;;2125800;27;20515;-68
2022/07/24 01:38:07;;;;;;;4.97;4.57;;;19.50;99.90;;;;;;2126326;27;20466;-68
2022/07/24 01:39:08;;;;;;;5.70;4.43;;;19.50;99.90;;;;;;2124666;27;20019;-69
2022/07/24 01:40:09;;;;;;;5.32;4.65;;;19.50;99.90;;;;;;2123551;27;20019;-69
2022/07/24 01:41:10;;;;;;;5.55;4.90;;;19.50;99.90;;;;;;2124765;27;20015;-69
2022/07/24 01:42:10;;;;;;;5.53;4.25;;;19.50;99.90;;;;;;2127334;27;20139;-69
2022/07/24 01:43:11;;;;;;;6.32;4.55;;;19.50;99.90;;;;;;2125333;27;20054;-69
2022/07/24 01:44:12;;;;;;;4.82;4.32;;;19.50;99.90;;;;;;2126783;27;20015;-69
2022/07/24 01:45:13;;;;;;;4.88;4.47;;;19.50;99.90;;;;;;2125388;27;20016;-69
2022/07/24 01:46:14;;;;;;;5.00;4.60;;;19.50;99.90;;;;;;2125882;27;20023;-69
2022/07/24 01:47:15;;;;;;;7.93;4.65;;;19.40;99.90;;;;;;2125867;27;20030;-69
2022/07/24 01:48:16;;;;;;;5.78;5.03;;;19.40;99.90;;;;;;2126931;27;20410;-69
2022/07/24 01:49:18;;;;;;;6.05;4.32;;;19.40;99.90;;;;;;2128519;27;20053;-69
2022/07/24 01:50:19;;;;;;;4.90;4.45;;;19.40;99.90;;;;;;2130636;27;20019;-69
2022/07/24 01:51:19;;;;;;;7.90;4.70;;;19.40;99.90;;;;;;2126667;27;20020;-69
2022/07/24 01:52:20;;;;;;;6.05;4.40;;;19.40;99.90;;;;;;2128502;27;20023;-69
2022/07/24 01:53:21;;;;;;;5.40;4.68;;;19.40;99.90;;;;;;2125878;27;20019;-69
2022/07/24 01:54:21;;;;;;;8.35;5.20;;;19.40;99.90;;;;;;2127926;27;20022;-69
2022/07/24 01:55:22;;;;;;;6.88;4.50;;;19.40;99.90;;;;;;2127944;27;20462;-69
2022/07/24 01:56:23;;;;;;;5.82;4.80;;;19.40;99.90;;;;;;2126705;27;20546;-69
2022/07/24 01:57:23;;;;;;;6.15;4.55;;;19.40;99.90;;;;;;2126398;27;20491;-69
2022/07/24 01:58:24;;;;;;;5.68;5.10;;;19.40;99.90;;;;;;2126938;27;20497;-69
2022/07/24 01:59:25;;;;;;;6.57;4.82;;;19.40;99.90;;;;;;2125855;27;20482;-69
2022/07/24 02:00:25;;;;;;;5.80;4.70;;;19.40;99.90;;;;;;2127244;27;20018;-69
2022/07/24 02:01:27;;;;;;;5.38;4.88;;;19.40;99.90;;;;;;2127023;27;20049;-68
2022/07/24 02:02:27;;;;;;;5.47;4.70;;;19.30;99.90;;;;;;2128573;27;20023;-68
2022/07/24 02:03:28;;;;;;;6.07;4.72;;;19.40;99.90;;;;;;2127783;27;20055;-69
2022/07/24 02:04:29;;;;;;;5.00;4.60;;;19.30;99.90;;;;;;2129168;27;20030;-69
2022/07/24 02:05:29;;;;;;;6.32;5.35;;;19.30;99.90;;;;;;2126830;27;20031;-69
2022/07/24 02:06:30;;;;;;;4.50;4.10;;;19.30;99.90;;;;;;2123827;27;20478;-69
2022/07/24 02:07:31;;;;;;;7.35;4.88;;;19.30;99.90;;;;;;2127928;27;20019;-69
2022/07/24 02:08:31;;;;;;;7.03;4.88;;;19.30;99.90;;;;;;2124768;27;20068;-69
2022/07/24 02:09:32;;;;;;;6.80;4.95;;;19.30;99.90;;;;;;2127797;27;20018;-69
2022/07/24 02:10:33;;;;;;;5.40;4.90;;;19.30;99.90;;;;;;2127408;27;20029;-69
2022/07/24 02:11:33;;;;;;;5.45;4.57;;;19.30;99.90;;;;;;2127055;27;20071;-69
2022/07/24 02:12:34;;;;;;;4.70;4.32;;;19.30;99.90;;;;;;2126707;27;20413;-69
2022/07/24 02:13:34;;;;;;;5.68;4.88;;;19.30;99.90;;;;;;2127908;27;20434;-69
2022/07/24 02:14:35;;;;;;;4.70;4.30;;;19.30;99.90;;;;;;2127026;27;20526;-69
2022/07/24 02:15:36;;;;;;;5.53;4.97;;;19.30;99.90;;;;;;2125378;27;20481;-69
2022/07/24 02:16:37;;;;;;;4.70;4.30;;;19.30;99.90;;;;;;2124567;27;20025;-69
2022/07/24 02:17:37;;;;;;;5.10;4.68;;;19.30;99.90;;;;;;2128041;27;20055;-69
2022/07/24 02:18:38;;;;;;;5.20;4.47;;;19.30;99.90;;;;;;2128335;27;20093;-69
2022/07/24 02:19:39;;;;;;;6.35;4.63;;;19.30;99.90;;;;;;2128480;27;20087;-69
2022/07/24 02:20:39;;;;;;;4.75;4.35;;;19.30;99.90;;;;;;2125956;27;20058;-69
2022/07/24 02:21:40;;;;;;;5.88;4.22;;;19.30;99.90;;;;;;2129534;27;20027;-69
2022/07/24 02:22:41;;;;;;;7.97;4.60;;;19.30;99.90;;;;;;2127214;27;20023;-69
2022/07/24 02:23:41;;;;;;;5.63;4.50;;;19.30;99.90;;;;;;2125294;27;20023;-69
2022/07/24 02:24:42;;;;;;;4.53;4.20;;;19.30;99.90;;;;;;2128574;27;20014;-69
2022/07/24 02:25:45;;;;;;;5.35;4.50;;;19.30;99.90;;;;;;2126742;27;20067;-69
2022/07/24 02:26:46;;;;;;;5.18;4.68;;;19.30;99.90;;;;;;2128044;27;20031;-68
2022/07/24 02:27:46;;;;;;;5.57;4.63;;;19.20;99.90;;;;;;2127768;27;20038;-68
2022/07/24 02:28:47;;;;;;;5.60;4.68;;;19.30;99.90;;;;;;2129630;27;20030;-69
2022/07/24 02:29:48;;;;;;;5.20;4.70;;;19.20;99.90;;;;;;2128193;27;20023;-69
2022/07/24 02:30:49;;;;;;;5.07;4.57;;;19.20;99.90;;;;;;2126431;27;20023;-69
2022/07/24 02:31:49;;;;;;;6.10;4.82;;;19.20;99.90;;;;;;2124461;27;20027;-69
2022/07/24 02:32:50;;;;;;;5.05;4.50;;;19.30;99.90;;;;;;2127494;27;20370;-69
2022/07/24 02:33:51;;;;;;;5.40;4.47;;;19.20;99.90;;;;;;2127516;27;20011;-69
2022/07/24 02:34:52;;;;;;;7.28;4.78;;;19.30;99.90;;;;;;2128674;27;20514;-69
2022/07/24 02:35:53;;;;;;;6.18;4.53;;;19.30;99.90;;;;;;2124952;27;20481;-69
2022/07/24 02:36:53;;;;;;;5.95;4.57;;;19.30;99.90;;;;;;2127382;27;20105;-69
2022/07/24 02:37:54;;;;;;;5.63;4.47;;;19.20;99.90;;;;;;2128963;27;20473;-69
2022/07/24 02:38:55;;;;;;;8.00;4.82;;;19.30;99.90;;;;;;2127024;27;20088;-69
2022/07/24 02:39:55;;;;;;;6.13;4.38;;;19.30;99.90;;;;;;2130759;27;20022;-69
2022/07/24 02:40:56;;;;;;;4.57;4.18;;;19.30;99.90;;;;;;2126663;27;20050;-69
2022/07/24 02:41:57;;;;;;;6.53;5.10;;;19.30;99.90;;;;;;2124533;27;20031;-69
2022/07/24 02:42:57;;;;;;;5.90;4.85;;;19.30;99.90;;;;;;2129151;27;20023;-69
2022/07/24 02:43:58;;;;;;;7.93;4.38;;;19.30;99.90;;;;;;2128201;27;20023;-69
2022/07/24 02:44:59;;;;;;;5.13;4.22;;;19.20;99.90;;;;;;2128770;27;20029;-69
2022/07/24 02:45:59;;;;;;;6.40;4.47;;;19.30;99.90;;;;;;2125496;27;20083;-69
2022/07/24 02:47:00;;;;;;;4.47;4.07;;;19.20;99.90;;;;;;2126511;27;20038;-69
2022/07/24 02:48:01;;;;;;;5.70;5.10;;;19.20;99.90;;;;;;2130444;27;20102;-69
2022/07/24 02:49:01;;;;;;;5.43;4.95;;;19.20;99.90;;;;;;2130259;27;20011;-69
2022/07/24 02:50:03;;;;;;;5.03;4.63;;;19.30;99.90;;;;;;2125376;27;20015;-69
2022/07/24 02:51:04;;;;;;;5.32;4.18;;;19.20;99.90;;;;;;2128166;27;20017;-69
2022/07/24 02:52:04;;;;;;;4.90;4.47;;;19.20;99.90;;;;;;2128176;27;20018;-69
2022/07/24 02:53:06;;;;;;;4.90;4.10;;;19.20;99.90;;;;;;2127514;27;20052;-69
2022/07/24 02:54:06;;;;;;;4.68;4.28;;;19.20;99.90;;;;;;2128936;27;20018;-69
2022/07/24 02:55:07;;;;;;;9.35;4.40;;;19.20;99.90;;;;;;2130004;27;20508;-69
2022/07/24 02:56:08;;;;;;;4.97;4.47;;;19.20;99.90;;;;;;2129104;27;20460;-68
2022/07/24 02:57:09;;;;;;;4.82;4.38;;;19.20;99.90;;;;;;2127896;27;20041;-69
2022/07/24 02:58:10;;;;;;;5.10;4.60;;;19.20;99.90;;;;;;2124397;27;20042;-69
2022/07/24 02:59:10;;;;;;;6.00;4.53;;;19.20;99.90;;;;;;2130542;27;20011;-69
2022/07/24 03:00:14;;;;;;;5.03;4.55;;;19.20;99.90;;;;;;2128277;27;20022;-69
2022/07/24 03:01:15;;;;;;;5.10;4.18;;;19.20;99.90;;;;;;2127833;27;20019;-69
2022/07/24 03:02:16;;;;;;;6.13;4.63;;;19.30;99.90;;;;;;2129338;27;20015;-69
2022/07/24 03:03:16;;;;;;;6.25;4.57;;;19.20;99.90;;;;;;2124965;27;20015;-69
2022/07/24 03:04:17;;;;;;;5.40;4.50;;;19.30;99.90;;;;;;2123866;27;20094;-68
2022/07/24 03:05:18;;;;;;;4.90;4.45;;;19.30;99.90;;;;;;2130319;27;20065;-69
2022/07/24 03:06:18;;;;;;;4.90;4.40;;;19.20;99.90;;;;;;2122625;27;20027;-69
2022/07/24 03:07:19;;;;;;;5.25;3.95;;;19.20;99.90;;;;;;2128910;27;20021;-69
2022/07/24 03:08:20;;;;;;;4.65;4.20;;;19.20;99.90;;;;;;2126319;27;20022;-69
2022/07/24 03:09:20;;;;;;;7.38;4.90;;;19.20;99.90;;;;;;2127171;27;20019;-69
2022/07/24 03:10:21;;;;;;;4.80;4.38;;;19.20;99.90;;;;;;2125703;27;20026;-69
2022/07/24 03:11:22;;;;;;;6.95;4.90;;;19.20;99.90;;;;;;2126964;27;20015;-69
2022/07/24 03:12:22;;;;;;;5.00;4.40;;;19.20;99.90;;;;;;2128224;27;20019;-69
2022/07/24 03:13:23;;;;;;;9.52;5.28;;;19.20;99.90;;;;;;2129063;27;20018;-69
2022/07/24 03:14:24;;;;;;;6.43;4.72;;;19.20;99.90;;;;;;2125397;27;20418;-69
2022/07/24 03:15:24;;;;;;;5.47;4.80;;;19.20;99.90;;;;;;2129820;27;20015;-69
2022/07/24 03:16:25;;;;;;;4.88;4.50;;;19.20;99.90;;;;;;2124788;27;20031;-69
2022/07/24 03:17:25;;;;;;;6.50;4.28;;;19.20;99.90;;;;;;2126224;27;20129;-69
2022/07/24 03:18:26;;;;;;;7.47;4.70;;;19.20;99.90;;;;;;2125186;27;20521;-69
2022/07/24 03:19:26;;;;;;;6.50;4.40;;;19.20;99.90;;;;;;2126159;27;20091;-69
2022/07/24 03:20:28;;;;;;;5.78;4.25;;;19.20;99.90;;;;;;2129371;27;20030;-69
2022/07/24 03:21:29;;;;;;;5.15;4.30;;;19.20;99.90;;;;;;2125303;27;20482;-69
2022/07/24 03:22:30;;;;;;;7.70;4.57;;;19.20;99.90;;;;;;2126037;27;20450;-69
2022/07/24 03:23:30;;;;;;;5.03;4.38;;;19.20;99.90;;;;;;2128938;27;20030;-69
2022/07/24 03:24:31;;;;;;;4.80;4.40;;;19.20;99.90;;;;;;2126977;27;20034;-69
2022/07/24 03:25:31;;;;;;;5.47;4.65;;;19.20;99.90;;;;;;2128114;27;20461;-69
2022/07/24 03:26:32;;;;;;;7.25;4.70;;;19.10;99.90;;;;;;2128034;27;20382;-69
2022/07/24 03:27:33;;;;;;;5.07;4.57;;;19.20;99.90;;;;;;2127170;27;20101;-69
2022/07/24 03:28:34;;;;;;;5.50;4.43;;;19.20;99.90;;;;;;2126491;27;20042;-69
2022/07/24 03:29:35;;;;;;;4.38;4.07;;;19.10;99.90;;;;;;2127187;27;20427;-69
2022/07/24 03:30:36;;;;;;;7.72;4.35;;;19.10;99.90;;;;;;2126129;27;20011;-69
2022/07/24 03:31:44;;;;;;;6.47;4.90;;;19.10;99.90;;;;;;2129217;27;20019;-69
2022/07/24 03:32:44;;;;;;;5.10;4.65;;;19.10;99.90;;;;;;2124935;27;20019;-69
2022/07/24 03:33:45;;;;;;;5.18;4.68;;;19.10;99.90;;;;;;2126828;27;20047;-70
2022/07/24 03:34:46;;;;;;;5.93;4.50;;;19.10;99.90;;;;;;2126772;27;20529;-69
2022/07/24 03:35:46;;;;;;;5.47;4.65;;;19.10;99.90;;;;;;2127454;27;20023;-69
2022/07/24 03:36:47;;;;;;;5.57;4.47;;;19.10;99.90;;;;;;2127162;27;20035;-69
2022/07/24 03:37:47;;;;;;;4.88;4.47;;;19.10;99.90;;;;;;2119922;27;20095;-69
2022/07/24 03:38:48;;;;;;;4.68;4.28;;;19.10;99.90;;;;;;2117572;27;20027;-69
2022/07/24 03:39:49;;;;;;;5.15;4.57;;;19.10;99.90;;;;;;2128830;27;20118;-69
2022/07/24 03:40:49;;;;;;;5.55;4.60;;;19.10;99.90;;;;;;2130519;27;20018;-69
2022/07/24 03:41:50;;;;;;;4.82;4.45;;;19.10;99.90;;;;;;2126906;27;20023;-69
2022/07/24 03:42:50;;;;;;;5.65;4.47;;;19.10;99.90;;;;;;2128135;27;20072;-69
2022/07/24 03:43:51;;;;;;;5.07;4.50;;;19.10;99.90;;;;;;2126381;27;20018;-69
2022/07/24 03:44:52;;;;;;;5.55;4.70;;;19.10;99.90;;;;;;2124846;27;20042;-69
2022/07/24 03:45:52;;;;;;;7.93;4.78;;;19.10;99.90;;;;;;2126204;27;20080;-69
2022/07/24 03:46:53;;;;;;;5.43;4.20;;;19.10;99.90;;;;;;2125544;27;20106;-69
2022/07/24 03:47:53;;;;;;;6.60;4.75;;;19.10;99.90;;;;;;2128609;27;20046;-69
2022/07/24 03:48:55;;;;;;;5.20;4.57;;;19.10;99.90;;;;;;2129801;27;20374;-69
2022/07/24 03:49:55;;;;;;;6.82;4.53;;;19.10;99.90;;;;;;2126072;27;20027;-69
2022/07/24 03:50:56;;;;;;;4.97;4.38;;;19.10;99.90;;;;;;2126260;27;20038;-69
2022/07/24 03:51:57;;;;;;;5.07;4.57;;;19.10;99.90;;;;;;2125867;27;20025;-69
2022/07/24 03:52:57;;;;;;;5.68;4.55;;;19.10;99.90;;;;;;2127257;27;20122;-69
2022/07/24 03:53:58;;;;;;;4.70;4.30;;;19.10;99.90;;;;;;2124592;27;20023;-69
2022/07/24 03:54:59;;;;;;;6.15;4.35;;;19.10;99.90;;;;;;2127275;27;20382;-69
2022/07/24 03:55:59;;;;;;;4.38;3.97;;;19.10;99.90;;;;;;2126654;27;20134;-69
2022/07/24 03:57:00;;;;;;;5.07;4.57;;;19.10;99.90;;;;;;2126755;27;20041;-69
2022/07/24 03:58:00;;;;;;;6.63;4.72;;;19.10;99.90;;;;;;2127907;27;20042;-69
2022/07/24 03:59:01;;;;;;;6.10;4.22;;;19.10;99.90;;;;;;2127630;27;20019;-69
2022/07/24 04:00:04;;;;;;;5.18;4.55;;;19.10;99.90;;;;;;2124682;27;20016;-69
2022/07/24 04:01:04;;;;;;;5.25;4.85;;;19.20;99.90;;;;;;2126851;27;20054;-68
2022/07/24 04:02:05;;;;;;;5.45;4.30;;;19.10;99.90;;;;;;2124294;27;20019;-69
2022/07/24 04:03:06;;;;;;;4.32;3.92;;;19.10;99.90;;;;;;2126460;27;20456;-69
2022/07/24 04:04:06;;;;;;;5.97;4.28;;;19.20;99.90;;;;;;2126652;27;20019;-69
2022/07/24 04:05:08;;;;;;;4.63;4.22;;;19.20;99.90;;;;;;2128309;27;20090;-69
2022/07/24 04:06:09;;;;;;;5.10;4.55;;;19.20;99.90;;;;;;2126827;27;20026;-69
2022/07/24 04:07:10;;;;;;;5.75;4.25;;;19.20;99.90;;;;;;2126498;27;20325;-69
2022/07/24 04:08:10;;;;;;;8.40;4.57;;;19.20;99.90;;;;;;2125558;27;20042;-69
2022/07/24 04:09:11;;;;;;;5.38;4.50;;;19.20;99.90;;;;;;2126071;27;20030;-69
2022/07/24 04:10:11;;;;;;;4.53;4.13;;;19.20;99.90;;;;;;2125759;27;20148;-69
2022/07/24 04:11:12;;;;;;;5.10;4.30;;;19.20;99.90;;;;;;2126693;27;20121;-69
2022/07/24 04:12:13;;;;;;;4.47;4.07;;;19.30;99.90;;;;;;2128008;27;20305;-69
2022/07/24 04:13:14;;;;;;;7.25;4.57;;;19.30;99.90;;;;;;2124710;27;20393;-69
2022/07/24 04:14:14;;;;;;;4.63;4.22;;;19.30;99.90;;;;;;2127617;27;20026;-69
2022/07/24 04:15:15;;;;;;;5.53;4.63;;;19.30;99.90;;;;;;2126417;27;20011;-69
2022/07/24 04:16:16;;;;;;;5.03;4.30;;;19.30;99.90;;;;;;2123509;27;20022;-69
2022/07/24 04:17:16;;;;;;;5.95;4.78;;;19.30;99.90;;;;;;2126173;27;20038;-69
2022/07/24 04:18:17;;;;;;;6.88;4.68;;;19.30;99.90;;;;;;2126682;27;20011;-69
2022/07/24 04:19:17;;;;;;;5.70;4.35;;;19.30;99.90;;;;;;2126163;27;20054;-69
2022/07/24 04:20:18;;;;;;;5.68;4.63;;;19.30;99.90;;;;;;2126856;27;20414;-69
2022/07/24 04:21:19;;;;;;;4.80;4.35;;;19.30;99.90;;;;;;2126464;27;20019;-69
2022/07/24 04:22:19;;;;;;;4.70;4.05;;;19.30;99.90;;;;;;2126639;27;20053;-69
2022/07/24 04:23:20;;;;;;;4.90;4.50;;;19.40;99.90;;;;;;2127445;27;20014;-69
2022/07/24 04:24:21;;;;;;;4.95;4.45;;;19.40;99.90;;;;;;2127265;27;20019;-69
2022/07/24 04:25:21;;;;;;;7.53;4.85;;;19.40;99.90;;;;;;2127801;27;20034;-69
2022/07/24 04:26:22;;;;;;;4.90;4.50;;;19.40;99.90;;;;;;2126184;27;20023;-69
2022/07/24 04:27:22;;;;;;;5.80;4.53;;;19.40;99.90;;;;;;2125320;27;20019;-69
2022/07/24 04:28:23;;;;;;;5.07;4.10;;;19.50;99.90;;;;;;2127407;27;20015;-69
2022/07/24 04:29:24;;;;;;;5.30;4.45;;;19.50;99.90;;;;;;2126248;27;20087;-69
2022/07/24 04:30:24;;;;;;;5.05;4.28;;;19.50;99.90;;;;;;2127319;27;20496;-69
2022/07/24 04:31:25;;;;;;;5.50;4.28;;;19.50;99.90;;;;;;2125450;27;20439;-69
2022/07/24 04:32:25;;;;;;;4.88;3.92;;;19.50;99.90;;;;;;2125434;27;20066;-69
2022/07/24 04:33:26;;;;;;;7.13;4.78;;;19.50;99.90;;;;;;2126298;27;20076;-69
2022/07/24 04:34:27;;;;;;;6.35;4.75;;;19.50;99.90;;;;;;2126025;27;20033;-69
2022/07/24 04:35:27;;;;;;;5.30;4.20;;;19.60;99.90;;;;;;2125933;27;20015;-69
2022/07/24 04:36:28;;;;;;;5.95;4.47;;;19.60;99.90;;;;;;2126601;27;20023;-69
2022/07/24 04:37:29;;;;;;;5.05;4.47;;;19.60;99.90;;;;;;2126460;27;20395;-69
2022/07/24 04:38:30;;;;;;;4.50;4.10;;;19.60;99.90;;;;;;2127177;27;20033;-69
2022/07/24 04:39:30;;;;;;;4.50;4.10;;;19.70;99.90;;;;;;2126645;27;20470;-69
2022/07/24 04:40:31;;;;;;;5.00;4.38;;;19.70;99.90;;;;;;2124333;27;20462;-69
2022/07/24 04:41:32;;;;;;;4.57;4.13;;;19.70;99.90;;;;;;2125829;27;20288;-69
2022/07/24 04:42:32;;;;;;;4.30;4.00;;;19.80;99.90;;;;;;2126602;27;20027;-69
2022/07/24 04:43:33;;;;;;;4.90;4.40;;;19.80;99.90;;;;;;2126757;27;20030;-69
2022/07/24 04:44:34;;;;;;;6.28;4.68;;;19.80;99.90;;;;;;2123668;27;20031;-69
2022/07/24 04:45:34;;;;;;;6.18;4.25;;;19.80;99.90;;;;;;2126286;27;20110;-69
2022/07/24 04:46:35;;;;;;;5.68;4.32;;;19.80;99.90;;;;;;2124572;27;20042;-69
2022/07/24 04:47:37;;;;;;;4.70;4.30;;;19.90;99.90;;;;;;2125642;27;20019;-69
2022/07/24 04:48:37;;;;;;;6.10;4.30;;;19.90;99.90;;;;;;2124748;27;20027;-69
2022/07/24 04:49:38;;;;;;;4.90;4.40;;;19.90;99.90;;;;;;2125572;27;20389;-69
2022/07/24 04:50:39;;;;;;;6.25;4.45;;;19.90;99.90;;;;;;2119791;27;20607;-69
2022/07/24 04:51:39;;;;;;;4.97;4.53;;;19.90;99.90;;;;;;2109205;28;20058;-69
2022/07/24 04:52:40;;;;;;;5.25;4.60;;;19.90;99.90;;;;;;2117910;27;20012;-69
2022/07/24 04:53:41;;;;;;;4.88;4.47;;;19.90;99.90;;;;;;2125436;27;20068;-69
2022/07/24 04:54:41;;;;;;;4.53;4.03;;;20.00;99.90;;;;;;2124604;27;20019;-69
2022/07/24 04:55:42;;;;;;;6.20;4.53;;;20.00;99.90;;;;;;2125524;27;20473;-69
2022/07/24 04:56:43;;;;;;;4.95;4.45;;;20.10;99.90;;;;;;2124922;27;20426;-69
2022/07/24 04:57:43;;;;;;;5.53;4.07;;;20.10;99.90;;;;;;2124734;27;20436;-69
2022/07/24 04:58:44;;;;;;;4.80;4.40;;;20.20;99.90;;;;;;2126355;27;20034;-69
2022/07/24 04:59:44;;;;;;;5.13;4.65;;;20.20;99.90;;;;;;2127036;27;20022;-69
2022/07/24 05:00:45;;;;;;;4.50;4.10;;;20.20;99.90;;;;;;2123195;27;20035;-69
2022/07/24 05:01:46;;;;;;;5.07;4.55;;;20.30;99.90;;;;;;2123641;27;20030;-69
2022/07/24 05:02:46;;;;;;;6.20;4.25;;;20.30;99.90;;;;;;2124569;27;20434;-69
2022/07/24 05:03:47;;;;;;;5.78;4.65;;;20.40;99.90;;;;;;2124474;27;20027;-69
2022/07/24 05:04:47;;;;;;;5.55;3.85;;;20.40;99.90;;;;;;2124282;27;20354;-69
2022/07/24 05:05:48;;;;;;;4.32;3.92;;;20.40;99.90;;;;;;2124372;27;20521;-69
2022/07/24 05:06:49;;;;;;;7.15;4.40;;;20.50;99.90;;;;;;2126292;27;20114;-69
2022/07/24 05:07:49;;;;;;;5.80;4.32;;;20.50;99.90;;;;;;2126748;27;20461;-69
2022/07/24 05:08:50;;;;;;;7.38;4.40;;;20.60;99.90;;;;;;2126013;27;20015;-69
2022/07/24 05:09:51;;;;;;;5.00;4.20;;;20.70;99.90;;;;;;2124662;27;20067;-69
2022/07/24 05:10:51;;;;;;;4.63;4.32;;;20.80;99.90;;;;;;2126327;27;20046;-69
2022/07/24 05:11:52;;;;;;;5.18;3.95;;;20.80;99.90;;;;;;2125089;27;20038;-69
2022/07/24 05:12:52;;;;;;;4.18;3.88;;;20.90;99.90;;;;;;2124698;27;20064;-69
2022/07/24 05:13:53;;;;;;;4.32;3.75;;;21.00;99.90;;;;;;2126896;27;20019;-69
2022/07/24 05:14:54;;;;;;;7.18;4.18;;;21.00;99.90;;;;;;2128074;27;20050;-69
2022/07/24 05:15:55;;;;;;;4.97;3.95;;;21.10;99.90;;;;;;2128984;27;20019;-69
2022/07/24 05:16:56;;;;;;;5.68;4.28;;;21.20;99.90;;;;;;2127448;27;20076;-69